Time;durP1;ratioP1;P1;durP2;ratioP2;P2;SDS_P1;SDS_P2;PMS_P1;PMS_P2;Temp;Humidity;BMP_temperature;BMP_pressure;BME280_temperature;BME280_humidity;BME280_pressure;Samples;Min_cycle;Max_cycle;Signal;HPM_P1;HPM_P2
2023/12/26 00:00:31;;;;;;;5.68;3.88;;;15.20;99.90;;;;;;5028609;28;20405;-80
2023/12/26 00:02:57;;;;;;;4.95;4.18;;;14.90;99.90;;;;;;5026767;28;20064;-77
2023/12/26 00:05:23;;;;;;;4.85;3.50;;;13.40;99.90;;;;;;5043261;28;20064;-79
2023/12/26 00:07:49;;;;;;;4.53;3.65;;;15.50;99.90;;;;;;5045596;28;20080;-74
2023/12/26 00:10:15;;;;;;;3.97;3.58;;;13.10;99.90;;;;;;5046318;28;20170;-80
2023/12/26 00:12:42;;;;;;;4.15;3.60;;;15.40;99.90;;;;;;5028725;28;20442;-78
2023/12/26 00:15:09;;;;;;;7.50;3.65;;;11.60;99.90;;;;;;5026811;28;21161;-76
2023/12/26 00:17:35;;;;;;;4.28;2.83;;;16.50;99.90;;;;;;5040584;28;20047;-80
2023/12/26 00:20:01;;;;;;;4.63;2.63;;;15.40;99.90;;;;;;5024882;28;20041;-79
2023/12/26 00:22:26;;;;;;;3.50;2.42;;;15.50;99.90;;;;;;5027479;28;20049;-82
2023/12/26 00:24:52;;;;;;;3.85;2.42;;;15.90;99.90;;;;;;5039487;28;20392;-75
2023/12/26 00:27:18;;;;;;;3.50;2.08;;;15.20;99.90;;;;;;5047699;28;20045;-76
2023/12/26 00:29:44;;;;;;;3.78;2.45;;;12.00;99.90;;;;;;5043732;28;20041;-76
2023/12/26 00:32:10;;;;;;;3.67;2.50;;;11.60;99.90;;;;;;5048994;28;20382;-79
2023/12/26 00:34:35;;;;;;;4.32;2.42;;;16.50;99.90;;;;;;5042291;28;20544;-74
2023/12/26 00:37:01;;;;;;;3.13;2.33;;;14.00;99.90;;;;;;5019470;28;20051;-79
2023/12/26 00:39:27;;;;;;;3.90;2.15;;;13.50;99.90;;;;;;5040263;28;20032;-76
2023/12/26 00:41:53;;;;;;;2.95;2.20;;;13.30;99.90;;;;;;5026345;28;20033;-75
2023/12/26 00:44:19;;;;;;;4.53;2.72;;;14.90;99.90;;;;;;5024482;28;20044;-76
2023/12/26 00:46:46;;;;;;;5.15;2.60;;;13.50;99.90;;;;;;5024380;28;20029;-74
2023/12/26 00:49:13;;;;;;;3.25;2.20;;;15.80;99.90;;;;;;5041961;28;20044;-80
2023/12/26 00:51:38;;;;;;;2.85;2.10;;;13.70;99.90;;;;;;5073430;28;20045;-75
2023/12/26 00:54:05;;;;;;;4.38;2.58;;;13.00;99.90;;;;;;5040936;28;20125;-77
2023/12/26 00:56:30;;;;;;;6.55;2.70;;;12.20;99.90;;;;;;5026377;28;20064;-74
2023/12/26 00:58:56;;;;;;;3.95;2.33;;;15.30;99.90;;;;;;5028511;28;20048;-79
2023/12/26 01:01:22;;;;;;;6.18;3.05;;;15.00;99.90;;;;;;5030663;28;20127;-75
2023/12/26 01:03:47;;;;;;;4.80;2.38;;;14.20;99.90;;;;;;5076071;28;20410;-76
2023/12/26 01:06:14;;;;;;;2.70;2.15;;;13.30;99.90;;;;;;5060590;28;20111;-78
2023/12/26 01:08:40;;;;;;;5.47;3.13;;;11.80;99.90;;;;;;5046161;28;20535;-77
2023/12/26 01:11:06;;;;;;;4.30;2.00;;;14.30;99.90;;;;;;5046093;28;20401;-77
2023/12/26 01:13:34;;;;;;;2.13;1.65;;;16.60;99.90;;;;;;5023248;28;20037;-76
2023/12/26 01:16:04;;;;;;;5.35;2.25;;;11.80;99.90;;;;;;5029169;28;20064;-76
2023/12/26 01:18:31;;;;;;;2.83;1.80;;;15.30;99.90;;;;;;5046330;28;20045;-75
2023/12/26 01:20:57;;;;;;;3.90;1.70;;;12.30;99.90;;;;;;5055678;28;20045;-77
2023/12/26 01:23:23;;;;;;;3.40;1.30;;;13.00;99.90;;;;;;5077967;28;20091;-79
2023/12/26 01:25:49;;;;;;;4.53;1.95;;;14.60;99.90;;;;;;5039049;28;20076;-79
2023/12/26 01:28:15;;;;;;;6.97;1.77;;;11.70;99.90;;;;;;5038096;28;20069;-75
2023/12/26 01:30:41;;;;;;;5.47;1.60;;;16.00;99.90;;;;;;5056052;28;20052;-77
2023/12/26 01:33:08;;;;;;;6.18;2.22;;;13.20;99.90;;;;;;5026645;28;20045;-80
2023/12/26 01:35:34;;;;;;;5.68;1.80;;;12.00;99.90;;;;;;5073937;28;20033;-80
2023/12/26 01:37:59;;;;;;;5.80;1.75;;;15.60;99.90;;;;;;5025770;28;20041;-78
2023/12/26 01:40:25;;;;;;;5.72;1.70;;;12.90;99.90;;;;;;5043070;28;20053;-76
2023/12/26 01:42:51;;;;;;;6.20;2.15;;;12.60;99.90;;;;;;5043762;28;20053;-77
2023/12/26 01:45:17;;;;;;;7.35;1.38;;;11.80;99.90;;;;;;5075446;28;20052;-79
2023/12/26 01:47:45;;;;;;;10.10;2.00;;;12.50;99.90;;;;;;5051167;28;20037;-78
2023/12/26 01:50:12;;;;;;;10.63;3.42;;;15.90;99.90;;;;;;5047410;28;20424;-76
2023/12/26 01:52:39;;;;;;;6.45;1.92;;;12.80;99.90;;;;;;5029562;28;20063;-77
2023/12/26 01:55:06;;;;;;;10.32;2.22;;;11.80;99.90;;;;;;5044288;28;20153;-78
2023/12/26 01:57:34;;;;;;;18.23;2.80;;;13.50;99.90;;;;;;5048216;28;20118;-75
2023/12/26 02:00:01;;;;;;;11.32;2.35;;;15.80;99.90;;;;;;5074939;28;20049;-76
2023/12/26 02:02:28;;;;;;;9.93;2.38;;;12.50;99.90;;;;;;5050594;28;20044;-76
2023/12/26 02:04:55;;;;;;;15.07;2.60;;;11.60;99.90;;;;;;5044358;28;20135;-74
2023/12/26 02:07:20;;;;;;;12.30;2.88;;;12.70;99.90;;;;;;5043931;28;20172;-76
2023/12/26 02:09:46;;;;;;;11.73;2.83;;;13.60;99.90;;;;;;5060529;28;20124;-80
2023/12/26 02:12:12;;;;;;;12.20;2.75;;;11.80;99.90;;;;;;5026041;28;20041;-75
2023/12/26 02:14:38;;;;;;;9.48;2.60;;;15.60;99.90;;;;;;5032662;28;20401;-77
2023/12/26 02:17:08;;;;;;;11.52;3.08;;;15.10;99.90;;;;;;5025298;28;20127;-77
2023/12/26 02:19:42;;;;;;;11.05;2.67;;;15.20;99.90;;;;;;5074910;28;20041;-78
2023/12/26 02:22:09;;;;;;;17.20;3.10;;;11.90;99.90;;;;;;5046012;28;20065;-76
2023/12/26 02:24:34;;;;;;;15.10;3.22;;;12.30;99.90;;;;;;5043001;28;20112;-78
2023/12/26 02:27:00;;;;;;;12.13;3.08;;;11.50;99.90;;;;;;5050090;28;20120;-79
2023/12/26 02:29:28;;;;;;;13.73;3.47;;;11.50;99.90;;;;;;5041526;28;20041;-75
2023/12/26 02:31:55;;;;;;;14.85;2.75;;;14.00;99.90;;;;;;5027310;28;20059;-78
2023/12/26 02:34:22;;;;;;;14.32;3.58;;;13.10;99.90;;;;;;5043353;28;20136;-75
2023/12/26 02:36:49;;;;;;;12.55;3.30;;;15.60;99.90;;;;;;5076586;28;20063;-76
2023/12/26 02:39:15;;;;;;;12.93;3.60;;;15.60;99.90;;;;;;5041974;28;20048;-76
2023/12/26 02:41:40;;;;;;;12.10;3.30;;;15.10;99.90;;;;;;5010881;28;20481;-78
2023/12/26 02:44:06;;;;;;;12.18;2.92;;;16.30;99.90;;;;;;5042280;28;20047;-75
2023/12/26 02:46:32;;;;;;;12.40;3.00;;;14.20;99.90;;;;;;5043766;28;20043;-76
2023/12/26 02:48:58;;;;;;;10.48;3.58;;;13.30;99.90;;;;;;5044348;28;20457;-77
2023/12/26 02:51:23;;;;;;;12.70;3.00;;;13.70;99.90;;;;;;5046209;28;20037;-77
2023/12/26 02:53:49;;;;;;;10.73;3.25;;;12.90;99.90;;;;;;5012386;28;20149;-77
2023/12/26 02:56:18;;;;;;;10.82;2.92;;;12.40;99.90;;;;;;5043625;28;20037;-78
2023/12/26 02:58:43;;;;;;;13.02;3.38;;;16.30;99.90;;;;;;5043093;28;20049;-78
2023/12/26 03:01:09;;;;;;;13.73;3.55;;;14.60;99.90;;;;;;5024440;28;20037;-77
2023/12/26 03:03:35;;;;;;;15.20;3.60;;;12.40;99.90;;;;;;5010917;28;20044;-78
2023/12/26 03:06:00;;;;;;;15.25;3.72;;;15.70;67.90;;;;;;5025419;28;20045;-76
2023/12/26 03:08:26;;;;;;;11.13;3.13;;;13.20;93.90;;;;;;5041894;28;20041;-75
2023/12/26 03:10:52;;;;;;;13.98;3.70;;;13.30;99.90;;;;;;5026844;28;20047;-78
2023/12/26 03:13:18;;;;;;;15.63;3.17;;;13.00;1.00;;;;;;5025302;28;20041;-76
2023/12/26 03:15:43;;;;;;;10.55;2.85;;;15.40;83.60;;;;;;5044256;28;20037;-81
2023/12/26 03:18:09;;;;;;;16.23;3.15;;;12.50;1.00;;;;;;5024072;28;20045;-79
2023/12/26 03:20:35;;;;;;;11.18;2.75;;;15.90;1.00;;;;;;5024015;28;20476;-76
2023/12/26 03:23:00;;;;;;;14.75;3.25;;;12.90;1.00;;;;;;5036217;28;20045;-78
2023/12/26 03:25:26;;;;;;;12.32;3.47;;;14.00;26.90;;;;;;5014888;28;20455;-76
2023/12/26 03:27:52;;;;;;;12.88;3.17;;;11.00;1.00;;;;;;5032881;28;20128;-75
2023/12/26 03:30:17;;;;;;;12.48;3.10;;;12.50;1.00;;;;;;5033204;28;20049;-78
2023/12/26 03:32:44;;;;;;;11.93;3.00;;;15.50;1.00;;;;;;5032735;28;20037;-77
2023/12/26 03:35:10;;;;;;;11.73;3.40;;;14.90;1.00;;;;;;5016331;28;20049;-76
2023/12/26 03:37:36;;;;;;;10.70;2.80;;;15.30;1.00;;;;;;5041209;28;20123;-76
2023/12/26 03:40:02;;;;;;;13.20;3.25;;;10.90;99.90;;;;;;5047615;28;20405;-78
2023/12/26 03:42:28;;;;;;;13.48;2.80;;;11.00;99.90;;;;;;5071177;28;20045;-76
2023/12/26 03:44:54;;;;;;;14.57;3.28;;;10.60;1.00;;;;;;5037636;28;20046;-77
2023/12/26 03:47:19;;;;;;;11.80;2.67;;;14.40;1.00;;;;;;5057814;28;20052;-76
2023/12/26 03:49:45;;;;;;;12.88;3.35;;;11.60;99.90;;;;;;5043920;28;20120;-76
2023/12/26 03:52:11;;;;;;;14.90;4.10;;;10.70;99.90;;;;;;5041027;28;20088;-77
2023/12/26 03:54:36;;;;;;;15.73;3.35;;;11.20;1.00;;;;;;5010236;28;20072;-74
2023/12/26 03:57:02;;;;;;;13.40;3.38;;;10.70;1.00;;;;;;5027320;28;20038;-73
2023/12/26 03:59:28;;;;;;;17.38;4.05;;;10.50;99.90;;;;;;5054902;28;20045;-77
2023/12/26 04:01:54;;;;;;;13.57;3.15;;;10.70;99.90;;;;;;5026184;28;20033;-76
2023/12/26 04:04:20;;;;;;;17.55;3.35;;;13.60;99.90;;;;;;5044066;28;20056;-75
2023/12/26 04:06:45;;;;;;;15.80;3.80;;;14.30;99.90;;;;;;5059896;28;20080;-77
2023/12/26 04:09:12;;;;;;;15.65;3.78;;;10.50;20.50;;;;;;5043916;28;20060;-75
2023/12/26 04:11:38;;;;;;;17.85;3.85;;;10.20;75.80;;;;;;5076844;28;20071;-73
2023/12/26 04:14:03;;;;;;;12.88;3.15;;;14.00;82.90;;;;;;5040596;28;20114;-75
2023/12/26 04:16:29;;;;;;;15.27;3.67;;;13.00;1.00;;;;;;5024233;28;20032;-78
2023/12/26 04:18:55;;;;;;;15.07;4.03;;;13.30;1.00;;;;;;5044683;28;20044;-75
2023/12/26 04:21:20;;;;;;;18.70;4.00;;;13.50;1.00;;;;;;5041516;28;20507;-76
2023/12/26 04:23:46;;;;;;;20.95;4.43;;;12.40;1.00;;;;;;5022932;28;20056;-78
2023/12/26 04:26:12;;;;;;;14.98;4.03;;;11.10;99.90;;;;;;5025056;28;20131;-76
2023/12/26 04:28:37;;;;;;;16.75;4.20;;;14.00;99.90;;;;;;5041319;28;20362;-80
2023/12/26 04:31:04;;;;;;;18.33;4.75;;;13.90;99.90;;;;;;5041588;28;20377;-77
2023/12/26 04:33:30;;;;;;;18.10;4.03;;;11.30;99.90;;;;;;5008569;28;20437;-73
2023/12/26 04:35:56;;;;;;;18.58;4.47;;;11.40;20.30;;;;;;5044015;28;20041;-78
2023/12/26 04:38:21;;;;;;;14.50;3.72;;;11.40;13.90;;;;;;5028402;28;20124;-76
2023/12/26 04:40:47;;;;;;;15.45;3.28;;;13.60;99.90;;;;;;5071556;28;20471;-75
2023/12/26 04:43:15;;;;;;;21.27;4.63;;;13.60;1.00;;;;;;5030743;28;20102;-76
2023/12/26 04:45:41;;;;;;;18.75;4.55;;;9.90;9.80;;;;;;5028637;28;20045;-75
2023/12/26 04:48:07;;;;;;;16.38;4.05;;;11.90;99.90;;;;;;5031303;28;20045;-78
2023/12/26 04:50:34;;;;;;;19.23;4.00;;;13.10;99.90;;;;;;5012546;28;20036;-73
2023/12/26 04:53:01;;;;;;;16.00;4.30;;;13.60;1.00;;;;;;5058338;28;20481;-72
2023/12/26 04:55:27;;;;;;;16.10;3.80;;;12.40;99.90;;;;;;5044459;28;20045;-73
2023/12/26 04:57:52;;;;;;;16.88;4.05;;;12.60;1.00;;;;;;5056656;28;20048;-75
2023/12/26 05:00:18;;;;;;;16.88;4.22;;;11.90;1.00;;;;;;5042217;28;20033;-76
2023/12/26 05:02:44;;;;;;;20.63;4.30;;;12.90;1.00;;;;;;5023825;28;20090;-75
2023/12/26 05:05:10;;;;;;;16.23;4.43;;;10.40;1.00;;;;;;5045108;28;20473;-75
2023/12/26 05:07:35;;;;;;;15.90;4.72;;;10.10;99.90;;;;;;5039242;28;20066;-74
2023/12/26 05:10:01;;;;;;;19.70;3.80;;;10.20;99.90;;;;;;5028579;28;20114;-75
2023/12/26 05:12:28;;;;;;;13.88;3.60;;;10.20;99.90;;;;;;5041631;28;20107;-74
2023/12/26 05:14:54;;;;;;;16.02;3.83;;;13.30;99.90;;;;;;5045455;28;20086;-79
2023/12/26 05:17:19;;;;;;;15.98;3.85;;;13.50;99.90;;;;;;5073043;28;20451;-77
2023/12/26 05:19:45;;;;;;;16.02;3.92;;;10.20;99.90;;;;;;5054614;28;20037;-75
2023/12/26 05:22:11;;;;;;;17.70;3.92;;;11.40;99.90;;;;;;5043956;28;20037;-77
2023/12/26 05:24:37;;;;;;;17.70;4.18;;;11.00;99.90;;;;;;5056450;28;20055;-74
2023/12/26 05:27:03;;;;;;;20.13;3.83;;;13.70;99.90;;;;;;5057127;28;20503;-78
2023/12/26 05:29:29;;;;;;;16.52;3.75;;;10.30;99.90;;;;;;5044044;28;20497;-75
2023/12/26 05:31:54;;;;;;;16.05;4.32;;;10.60;99.90;;;;;;5042878;28;20122;-77
2023/12/26 05:34:20;;;;;;;15.60;3.65;;;13.20;99.90;;;;;;5030714;28;20831;-76
2023/12/26 05:36:46;;;;;;;15.85;3.72;;;13.40;1.00;;;;;;5022040;28;20036;-75
2023/12/26 05:39:12;;;;;;;15.02;4.40;;;12.60;99.90;;;;;;5061868;28;20053;-78
2023/12/26 05:41:41;;;;;;;19.13;4.35;;;12.30;99.90;;;;;;5022208;28;20404;-77
2023/12/26 05:44:07;;;;;;;15.70;3.78;;;10.30;99.90;;;;;;5023730;28;20129;-78
2023/12/26 05:46:33;;;;;;;15.95;4.00;;;13.10;99.90;;;;;;5037759;28;20091;-79
2023/12/26 05:48:59;;;;;;;20.65;3.95;;;10.50;99.90;;;;;;5056598;28;20052;-77
2023/12/26 05:51:25;;;;;;;12.18;3.45;;;13.60;99.90;;;;;;5040312;28;20050;-77
2023/12/26 05:53:51;;;;;;;14.75;3.40;;;13.20;1.00;;;;;;5040402;28;20049;-74
2023/12/26 05:56:18;;;;;;;16.98;3.60;;;12.30;1.00;;;;;;5023939;28;20033;-76
2023/12/26 05:58:44;;;;;;;15.13;4.13;;;13.60;99.90;;;;;;5044979;28;20047;-75
2023/12/26 06:01:10;;;;;;;18.77;3.80;;;10.10;99.90;;;;;;5038866;28;20418;-77
2023/12/26 06:03:37;;;;;;;16.65;3.60;;;13.30;99.90;;;;;;5024282;28;20072;-73
2023/12/26 06:06:03;;;;;;;15.05;3.88;;;12.60;99.90;;;;;;5022395;28;20464;-73
2023/12/26 06:08:29;;;;;;;13.45;3.33;;;12.20;99.90;;;;;;5039458;28;20139;-75
2023/12/26 06:10:56;;;;;;;13.95;3.30;;;12.90;99.90;;;;;;5009651;28;20132;-77
2023/12/26 06:13:22;;;;;;;17.30;3.85;;;13.30;99.90;;;;;;5024945;28;20392;-79
2023/12/26 06:15:47;;;;;;;12.70;3.63;;;10.60;99.90;;;;;;5041189;28;20168;-77
2023/12/26 06:18:13;;;;;;;13.80;3.53;;;12.30;99.90;;;;;;5039847;28;20485;-75
2023/12/26 06:20:39;;;;;;;16.63;3.95;;;12.00;99.90;;;;;;5039733;28;20072;-75
2023/12/26 06:23:04;;;;;;;16.48;3.95;;;11.10;99.90;;;;;;5039017;28;20037;-78
2023/12/26 06:25:30;;;;;;;15.77;3.40;;;13.70;1.00;;;;;;5040154;28;20051;-80
2023/12/26 06:27:56;;;;;;;13.45;3.35;;;12.40;1.00;;;;;;5023494;28;20515;-75
2023/12/26 06:30:21;;;;;;;15.40;3.08;;;12.30;1.00;;;;;;5023811;28;20034;-79
2023/12/26 06:32:47;;;;;;;12.77;2.88;;;13.80;1.00;;;;;;5046585;28;20044;-75
2023/12/26 06:35:13;;;;;;;14.52;3.55;;;10.90;1.00;;;;;;5028408;28;20075;-75
2023/12/26 06:37:39;;;;;;;13.38;3.33;;;10.50;1.00;;;;;;5075130;28;20099;-74
2023/12/26 06:40:05;;;;;;;15.90;3.70;;;11.40;99.90;;;;;;5042811;28;20045;-78
2023/12/26 06:42:31;;;;;;;11.82;3.22;;;12.80;99.90;;;;;;5025911;28;20051;-73
2023/12/26 06:44:57;;;;;;;17.40;3.50;;;10.40;3.40;;;;;;5043919;28;20432;-76
2023/12/26 06:47:22;;;;;;;12.80;3.40;;;10.40;99.90;;;;;;5027099;28;20047;-73
2023/12/26 06:49:50;;;;;;;15.48;3.63;;;10.40;23.70;;;;;;5028612;28;20033;-76
2023/12/26 06:52:15;;;;;;;19.65;4.10;;;12.90;99.90;;;;;;5042474;28;20124;-76
2023/12/26 06:54:42;;;;;;;17.80;3.95;;;11.60;99.90;;;;;;5041469;28;20419;-74
2023/12/26 06:57:15;;;;;;;15.75;4.40;;;10.60;2.30;;;;;;5075497;28;20604;-75
2023/12/26 06:59:43;;;;;;;10.90;2.72;;;10.40;97.90;;;;;;5075488;28;20095;-76
2023/12/26 07:02:09;;;;;;;17.85;3.83;;;11.50;1.00;;;;;;5047463;28;21570;-74
2023/12/26 07:04:34;;;;;;;16.85;3.78;;;10.50;1.00;;;;;;5042050;28;20036;-77
2023/12/26 07:07:00;;;;;;;14.60;4.05;;;10.50;1.00;;;;;;5074613;28;20041;-78
2023/12/26 07:09:26;;;;;;;14.48;3.97;;;12.10;99.90;;;;;;5026687;28;20080;-75
2023/12/26 07:11:52;;;;;;;13.68;3.47;;;11.40;99.90;;;;;;5026404;28;20139;-76
2023/12/26 07:14:18;;;;;;;15.40;4.15;;;12.70;1.00;;;;;;5022711;28;20087;-79
2023/12/26 07:16:44;;;;;;;14.27;3.60;;;13.40;1.00;;;;;;5022985;28;21947;-74
2023/12/26 07:19:10;;;;;;;15.52;4.10;;;11.60;1.00;;;;;;5040229;28;20041;-79
2023/12/26 07:21:36;;;;;;;14.45;4.32;;;12.80;1.00;;;;;;5023008;28;20393;-80
2023/12/26 07:24:02;;;;;;;16.33;3.72;;;11.50;1.00;;;;;;5043244;28;20048;-79
2023/12/26 07:26:27;;;;;;;18.55;4.15;;;12.70;99.90;;;;;;5042093;28;20587;-77
2023/12/26 07:28:53;;;;;;;17.13;3.90;;;12.80;99.90;;;;;;5042348;28;20155;-77
2023/12/26 07:31:25;;;;;;;21.30;5.05;;;12.50;1.00;;;;;;5057649;28;20523;-75
2023/12/26 07:33:51;;;;;;;15.43;4.43;;;11.10;1.00;;;;;;5038082;28;20484;-74
2023/12/26 07:36:17;;;;;;;18.52;4.13;;;13.20;1.00;;;;;;5028037;28;20401;-79
2023/12/26 07:38:44;;;;;;;17.45;4.15;;;11.30;1.00;;;;;;5041268;28;21952;-79
2023/12/26 07:41:10;;;;;;;17.27;4.13;;;11.40;99.90;;;;;;5023041;28;20033;-75
2023/12/26 07:43:36;;;;;;;18.52;4.00;;;11.40;99.90;;;;;;5043902;28;20041;-75
2023/12/26 07:46:02;;;;;;;18.42;3.92;;;12.90;99.90;;;;;;5047781;28;20053;-78
2023/12/26 07:48:28;;;;;;;16.38;4.10;;;12.70;99.90;;;;;;5026598;28;20140;-79
2023/12/26 07:50:54;;;;;;;15.77;3.95;;;10.80;99.90;;;;;;5026901;28;20124;-77
2023/12/26 07:53:20;;;;;;;17.73;4.10;;;11.90;1.00;;;;;;5039383;28;20103;-75
2023/12/26 07:55:45;;;;;;;16.33;4.20;;;11.90;1.00;;;;;;5048049;28;20049;-76
2023/12/26 07:58:12;;;;;;;14.43;3.83;;;13.20;1.00;;;;;;5065374;28;20041;-74
2023/12/26 08:00:37;;;;;;;15.00;3.95;;;10.70;99.90;;;;;;5048930;28;20067;-77
2023/12/26 08:03:03;;;;;;;17.52;4.15;;;10.80;99.90;;;;;;5058102;28;20053;-78
2023/12/26 08:05:29;;;;;;;14.55;3.47;;;12.10;99.90;;;;;;5048817;28;20056;-76
2023/12/26 08:07:55;;;;;;;17.73;4.30;;;11.60;99.90;;;;;;5032413;28;20409;-76
2023/12/26 08:10:20;;;;;;;16.00;4.18;;;11.30;99.90;;;;;;5028144;28;20049;-80
2023/12/26 08:12:46;;;;;;;19.88;4.38;;;13.10;95.00;;;;;;5031583;28;20040;-76
2023/12/26 08:15:12;;;;;;;14.93;4.03;;;10.90;99.90;;;;;;5049185;28;20044;-76
2023/12/26 08:17:38;;;;;;;13.65;3.95;;;10.90;99.90;;;;;;5050194;28;20402;-75
2023/12/26 08:20:04;;;;;;;18.33;4.18;;;12.00;99.90;;;;;;5075969;28;20048;-78
2023/12/26 08:22:30;;;;;;;16.33;4.18;;;12.60;99.90;;;;;;5057495;28;20049;-77
2023/12/26 08:24:56;;;;;;;18.65;5.00;;;11.20;99.90;;;;;;5033390;28;20037;-77
2023/12/26 08:27:22;;;;;;;22.25;5.43;;;11.30;99.90;;;;;;5024589;28;20378;-78
2023/12/26 08:29:49;;;;;;;18.20;4.15;;;12.90;99.90;;;;;;5055346;28;20041;-75
2023/12/26 08:32:15;;;;;;;20.48;4.40;;;11.30;99.90;;;;;;5041087;28;20045;-77
2023/12/26 08:34:44;;;;;;;18.25;4.05;;;12.60;99.90;;;;;;5015500;28;20106;-77
2023/12/26 08:37:13;;;;;;;17.15;4.45;;;10.80;99.90;;;;;;5033236;28;20171;-78
2023/12/26 08:39:39;;;;;;;17.33;4.28;;;12.20;99.90;;;;;;5034615;28;20051;-76
2023/12/26 08:42:06;;;;;;;16.75;4.38;;;13.10;99.90;;;;;;5044983;28;20037;-78
2023/12/26 08:44:32;;;;;;;21.55;4.88;;;11.50;99.90;;;;;;5048744;28;20068;-77
2023/12/26 08:47:04;;;;;;;15.88;4.22;;;11.60;99.90;;;;;;5049097;28;20075;-76
2023/12/26 08:49:30;;;;;;;19.55;3.80;;;11.20;99.90;;;;;;5030084;28;20060;-80
2023/12/26 08:51:56;;;;;;;14.57;4.18;;;10.90;99.90;;;;;;5072803;28;20041;-78
2023/12/26 08:54:22;;;;;;;12.35;3.70;;;13.10;99.90;;;;;;5047368;28;20044;-80
2023/12/26 08:56:48;;;;;;;16.92;4.05;;;11.00;40.20;;;;;;5061785;28;20056;-79
2023/12/26 08:59:14;;;;;;;15.45;4.57;;;12.10;99.20;;;;;;5046042;28;20507;-78
2023/12/26 09:01:39;;;;;;;17.63;4.32;;;12.40;99.90;;;;;;5053535;28;20129;-79
2023/12/26 09:04:07;;;;;;;14.18;4.68;;;13.20;99.90;;;;;;5057247;28;20045;-78
2023/12/26 09:06:33;;;;;;;16.23;4.15;;;11.90;99.90;;;;;;5053585;28;20056;-84
2023/12/26 09:08:59;;;;;;;16.15;3.55;;;12.70;99.90;;;;;;5030520;28;20056;-80
2023/12/26 09:11:25;;;;;;;13.88;3.75;;;11.30;99.90;;;;;;5030532;28;20036;-80
2023/12/26 09:13:50;;;;;;;16.67;3.63;;;11.90;99.90;;;;;;5059553;28;20098;-79
2023/12/26 09:16:16;;;;;;;17.35;3.88;;;13.40;78.70;;;;;;5056378;28;20038;-80
2023/12/26 09:18:42;;;;;;;14.75;3.72;;;12.20;1.00;;;;;;5046840;28;20041;-80
2023/12/26 09:21:08;;;;;;;21.33;4.07;;;11.50;63.20;;;;;;5049223;28;20404;-80
2023/12/26 09:23:33;;;;;;;18.45;4.40;;;13.50;99.90;;;;;;5016654;28;20405;-81
2023/12/26 09:26:05;;;;;;;14.52;3.90;;;12.80;99.90;;;;;;5032326;28;20049;-81
2023/12/26 09:28:31;;;;;;;16.00;3.60;;;13.50;9.50;;;;;;5057520;28;20039;-80
2023/12/26 09:30:57;;;;;;;17.48;3.95;;;13.30;99.90;;;;;;5057163;28;20044;-79
2023/12/26 09:33:24;;;;;;;12.60;3.50;;;13.10;2.60;;;;;;5016243;28;20041;-81
2023/12/26 09:35:50;;;;;;;15.23;3.60;;;13.30;9.30;;;;;;5032514;28;20033;-81
2023/12/26 09:38:16;;;;;;;17.05;3.85;;;13.00;1.00;;;;;;5032761;28;20056;-80
2023/12/26 09:40:42;;;;;;;14.70;3.53;;;12.80;1.00;;;;;;5048510;28;20525;-79
2023/12/26 09:43:07;;;;;;;16.20;3.88;;;12.20;1.00;;;;;;5054350;28;20041;-80
2023/12/26 09:45:34;;;;;;;11.85;3.63;;;12.90;99.90;;;;;;5032544;28;20045;-78
2023/12/26 09:48:01;;;;;;;12.80;3.72;;;11.70;99.90;;;;;;5048316;28;20053;-81
2023/12/26 09:50:27;;;;;;;17.65;4.32;;;12.90;99.90;;;;;;5039686;28;20033;-79
2023/12/26 09:53:00;;;;;;;19.48;3.50;;;13.10;99.90;;;;;;5056696;28;20041;-78
2023/12/26 09:55:29;;;;;;;16.77;3.88;;;12.90;99.90;;;;;;5055949;28;20073;-78
2023/12/26 09:57:59;;;;;;;10.73;3.40;;;13.00;99.90;;;;;;5072765;28;20049;-80
2023/12/26 10:00:28;;;;;;;14.35;3.70;;;12.90;99.90;;;;;;5049717;28;20392;-78
2023/12/26 10:02:55;;;;;;;15.18;3.83;;;13.00;99.90;;;;;;5015525;28;20048;-80
2023/12/26 10:05:21;;;;;;;15.93;3.90;;;13.00;99.90;;;;;;5048544;28;20083;-78
2023/12/26 10:07:47;;;;;;;16.27;4.40;;;11.90;99.90;;;;;;5051295;28;21465;-79
2023/12/26 10:10:19;;;;;;;13.13;3.92;;;13.20;99.90;;;;;;5036167;28;20084;-75
2023/12/26 10:12:49;;;;;;;17.30;4.88;;;12.50;99.90;;;;;;5035181;28;20496;-78
2023/12/26 10:15:16;;;;;;;15.90;3.95;;;13.30;99.90;;;;;;5075046;28;20104;-77
2023/12/26 10:17:43;;;;;;;14.07;3.97;;;13.20;99.90;;;;;;5034613;28;20049;-76
2023/12/26 10:20:12;;;;;;;15.15;4.07;;;13.20;99.90;;;;;;5036116;28;20691;-74
2023/12/26 10:22:44;;;;;;;12.65;3.25;;;12.00;99.90;;;;;;5035455;28;20503;-79
2023/12/26 10:25:11;;;;;;;16.63;4.10;;;11.90;99.90;;;;;;5084734;28;20505;-75
2023/12/26 10:27:38;;;;;;;15.73;4.40;;;13.00;99.90;;;;;;5076900;28;20045;-76
2023/12/26 10:30:04;;;;;;;17.48;3.97;;;12.60;99.90;;;;;;5051939;28;20037;-78
2023/12/26 10:32:31;;;;;;;16.30;3.65;;;12.20;99.90;;;;;;5059801;28;20461;-75
2023/12/26 10:35:10;;;;;;;15.95;4.43;;;12.30;99.90;;;;;;5034873;28;20036;-78
2023/12/26 10:37:36;;;;;;;15.05;4.00;;;13.20;99.90;;;;;;5051726;28;20049;-80
2023/12/26 10:40:04;;;;;;;19.67;4.90;;;13.30;99.90;;;;;;5076604;28;20060;-79
2023/12/26 10:42:31;;;;;;;17.80;4.28;;;13.00;99.90;;;;;;5059533;28;20045;-76
2023/12/26 10:45:07;;;;;;;17.17;3.97;;;13.00;99.90;;;;;;5062369;28;20041;-76
2023/12/26 10:47:33;;;;;;;15.75;4.70;;;12.40;99.90;;;;;;5076532;28;20043;-80
2023/12/26 10:50:01;;;;;;;12.38;3.25;;;13.70;99.90;;;;;;5076326;28;20041;-80
2023/12/26 10:52:28;;;;;;;16.33;4.45;;;13.10;13.00;;;;;;5076711;28;20396;-79
2023/12/26 10:54:59;;;;;;;17.83;4.78;;;13.20;94.40;;;;;;5052067;28;20038;-78
2023/12/26 10:57:25;;;;;;;17.75;3.85;;;13.40;35.80;;;;;;5051852;28;20076;-82
2023/12/26 13:51:40;;;;;;;8.43;1.98;;;12.40;99.90;;;;;;5074564;28;20053;-77
2023/12/26 13:54:06;;;;;;;6.55;1.67;;;12.40;66.50;;;;;;5049190;28;20052;-77
2023/12/26 13:56:31;;;;;;;4.63;1.30;;;11.80;41.90;;;;;;5019188;28;20094;-76
2023/12/26 13:58:57;;;;;;;7.03;1.70;;;12.10;99.90;;;;;;5052263;28;20102;-74
2023/12/26 14:01:23;;;;;;;6.90;1.60;;;11.90;99.90;;;;;;5052840;28;20043;-73
2023/12/26 14:03:51;;;;;;;13.25;1.88;;;11.20;1.00;;;;;;5036470;28;20041;-76
2023/12/26 14:06:21;;;;;;;8.05;1.95;;;11.90;1.00;;;;;;5052484;28;20466;-78
2023/12/26 14:08:51;;;;;;;6.97;1.52;;;11.40;1.00;;;;;;5035157;28;20088;-76
2023/12/26 14:11:17;;;;;;;9.88;2.15;;;11.50;17.00;;;;;;5052459;28;20397;-81
2023/12/26 14:13:43;;;;;;;7.53;1.55;;;12.20;1.00;;;;;;5052302;28;20048;-78
2023/12/26 14:16:09;;;;;;;7.90;1.80;;;11.90;1.00;;;;;;5035452;28;20041;-77
2023/12/26 14:18:35;;;;;;;8.63;1.73;;;11.40;1.00;;;;;;5051890;28;20036;-76
2023/12/26 14:21:01;;;;;;;9.93;1.98;;;11.40;1.00;;;;;;5052202;28;20114;-79
2023/12/26 14:23:28;;;;;;;7.15;1.70;;;11.30;1.00;;;;;;5043414;28;20040;-77
2023/12/26 14:25:54;;;;;;;10.63;2.88;;;11.80;1.00;;;;;;5052100;28;20131;-77
2023/12/26 14:28:20;;;;;;;9.43;2.03;;;12.10;1.00;;;;;;5072470;28;20045;-80
2023/12/26 14:30:45;;;;;;;6.18;1.45;;;11.30;99.90;;;;;;5035079;28;20421;-79
2023/12/26 14:33:19;;;;;;;6.15;1.63;;;11.40;99.90;;;;;;5077203;28;20044;-75
2023/12/26 14:35:45;;;;;;;10.68;1.85;;;11.20;99.90;;;;;;5060078;28;20068;-77
2023/12/26 14:38:11;;;;;;;10.23;2.30;;;12.10;1.00;;;;;;5034893;28;20520;-78
2023/12/26 14:40:37;;;;;;;8.98;2.50;;;11.30;99.90;;;;;;5065643;28;20131;-78
2023/12/26 14:43:02;;;;;;;11.50;2.10;;;11.70;99.90;;;;;;5076584;28;20140;-77
2023/12/26 14:45:28;;;;;;;8.43;1.85;;;11.10;99.90;;;;;;5076763;28;20417;-76
2023/12/26 14:47:54;;;;;;;9.82;1.83;;;11.20;99.90;;;;;;5043128;28;20063;-78
2023/12/26 14:50:20;;;;;;;7.47;1.55;;;11.10;99.90;;;;;;5034847;28;20564;-78
2023/12/26 14:52:46;;;;;;;7.63;1.83;;;10.80;99.90;;;;;;5058652;28;20120;-77
2023/12/26 14:55:11;;;;;;;8.57;2.30;;;11.50;99.90;;;;;;5051360;28;20116;-77
2023/12/26 14:57:37;;;;;;;5.72;1.80;;;11.50;1.00;;;;;;5034872;28;20044;-78
2023/12/26 15:00:04;;;;;;;7.25;2.30;;;11.30;1.00;;;;;;5076333;28;20040;-76
2023/12/26 15:02:29;;;;;;;6.38;1.85;;;10.80;99.90;;;;;;5060569;28;20073;-75
2023/12/26 15:04:55;;;;;;;6.57;1.70;;;10.70;1.00;;;;;;5058983;28;20079;-74
2023/12/26 15:07:21;;;;;;;7.05;1.60;;;11.00;1.00;;;;;;5034489;28;20533;-76
2023/12/26 15:09:46;;;;;;;9.35;2.13;;;10.60;99.90;;;;;;5034627;28;20049;-73
2023/12/26 15:12:12;;;;;;;6.35;2.00;;;10.70;99.90;;;;;;5071682;28;20076;-73
2023/12/26 15:14:38;;;;;;;10.60;2.13;;;11.00;99.90;;;;;;5047904;28;20116;-77
2023/12/26 15:17:04;;;;;;;8.05;1.60;;;10.60;99.90;;;;;;5054830;28;20040;-80
2023/12/26 15:19:30;;;;;;;7.45;1.95;;;10.60;99.90;;;;;;5076039;28;20044;-77
2023/12/26 15:21:55;;;;;;;6.28;1.67;;;10.80;63.20;;;;;;5042057;28;20041;-75
2023/12/26 15:24:21;;;;;;;8.15;1.80;;;10.80;1.00;;;;;;5076204;28;20047;-73
2023/12/26 15:26:47;;;;;;;9.20;2.10;;;10.60;20.40;;;;;;5058647;28;20033;-74
2023/12/26 15:29:13;;;;;;;7.63;2.20;;;11.20;1.00;;;;;;5045092;28;20029;-79